Time;durP1;ratioP1;P1;durP2;ratioP2;P2;SDS_P1;SDS_P2;PMS_P1;PMS_P2;Temp;Humidity;BMP_temperature;BMP_pressure;BME280_temperature;BME280_humidity;BME280_pressure;Samples;Min_cycle;Max_cycle;Signal;HPM_P1;HPM_P2
2022/11/18 00:00:20;;;;;;;36.43;17.90;;;;;;;;;;5002623;28;20278;-69
2022/11/18 00:02:45;;;;;;;41.77;18.30;;;;;;;;;;5004292;28;20026;-68
2022/11/18 00:05:11;;;;;;;33.37;17.37;;;;;;;;;;5008109;28;20021;-69
2022/11/18 00:07:36;;;;;;;35.43;18.07;;;;;;;;;;5002094;28;20117;-69
2022/11/18 00:10:01;;;;;;;36.77;17.67;;;;;;;;;;5007237;28;20053;-68
2022/11/18 00:15:10;;;;;;;30.95;16.38;;;;;;;;;;5007794;28;20373;-70
2022/11/18 00:17:35;;;;;;;35.13;17.33;;;;;;;;;;5008503;28;20511;-69
2022/11/18 00:20:00;;;;;;;32.93;18.33;;;;;;;;;;5010555;28;20449;-70
2022/11/18 00:22:26;;;;;;;35.13;17.17;;;;;;;;;;5013304;28;20274;-70
2022/11/18 00:24:51;;;;;;;33.77;16.73;;;;;;;;;;5010442;28;20272;-69
2022/11/18 00:27:16;;;;;;;33.67;18.13;;;;;;;;;;5008486;28;20026;-69
2022/11/18 00:29:41;;;;;;;39.87;20.30;;;;;;;;;;5009322;28;20369;-69
2022/11/18 00:32:07;;;;;;;49.20;24.50;;;;;;;;;;5007932;28;20395;-70
2022/11/18 00:34:32;;;;;;;42.43;21.70;;;;;;;;;;5007436;28;20464;-69
2022/11/18 00:36:57;;;;;;;42.80;21.30;;;;;;;;;;5008361;28;20326;-69
2022/11/18 00:39:22;;;;;;;35.13;18.30;;;;;;;;;;5014648;28;20067;-70
2022/11/18 00:44:32;;;;;;;38.30;20.10;;;;;;;;;;5032322;28;20113;-70
2022/11/18 00:46:57;;;;;;;35.90;19.20;;;;;;;;;;5025073;28;20116;-69
2022/11/18 00:49:23;;;;;;;30.40;17.25;;;;;;;;;;5017724;28;20462;-70
2022/11/18 00:51:48;;;;;;;30.98;16.05;;;;;;;;;;5032679;28;20032;-69
2022/11/18 00:54:13;;;;;;;29.50;17.25;;;;;;;;;;5028850;28;20373;-69
2022/11/18 00:56:38;;;;;;;28.97;16.80;;;;;;;;;;5028805;28;20112;-69
2022/11/18 00:59:04;;;;;;;30.17;16.53;;;;;;;;;;5026588;28;20332;-70
2022/11/18 01:01:29;;;;;;;33.00;17.03;;;;;;;;;;5026606;28;20025;-67
2022/11/18 01:03:54;;;;;;;34.60;16.83;;;;;;;;;;5030509;28;20278;-68
2022/11/18 01:06:20;;;;;;;31.33;16.60;;;;;;;;;;5012555;28;20026;-69
2022/11/18 01:08:45;;;;;;;29.63;16.95;;;;;;;5.62;nan;99267.94;5036387;28;20108;-69
2022/11/18 01:13:55;;;;;;;29.27;16.13;;;;;;;;;;5030021;28;20121;-68
2022/11/18 01:16:21;;;;;;;31.20;17.27;;;;;;;;;;5015422;28;20112;-70
2022/11/18 01:18:47;;;;;;;30.17;16.98;;;;;;;;;;5030322;28;20438;-70
2022/11/18 01:21:12;;;;;;;30.73;16.97;;;;;;;;;;5014397;28;20035;-70
2022/11/18 01:23:37;;;;;;;32.07;17.00;;;;;;;;;;5031943;28;20705;-69
2022/11/18 01:26:04;;;;;;;32.50;18.30;;;;;;;;;;5013407;28;20283;-69
2022/11/18 01:28:29;;;;;;;36.47;18.40;;;;;;;;;;5029639;28;20045;-70
2022/11/18 01:31:01;;;;;;;32.17;17.98;;;;;;;;;;5016337;28;20028;-71
2022/11/18 01:33:27;;;;;;;35.17;18.45;;;;;;;;;;5027303;28;20049;-69
2022/11/18 01:35:52;;;;;;;31.27;17.83;;;;;;;;;;5023038;28;20515;-70
2022/11/18 01:38:17;;;;;;;31.53;17.33;;;;;;;;;;5027162;28;20290;-70
2022/11/18 01:40:42;;;;;;;35.93;17.93;;;;;;;;;;5026317;28;20275;-67
2022/11/18 01:43:11;;;;;;;33.40;17.90;;;;;;;;;;5029668;28;20752;-70
2022/11/18 01:45:37;;;;;;;32.38;18.05;;;;;;;;;;5022376;28;20014;-69
2022/11/18 01:48:14;;;;;;;32.80;18.30;;;;;;;;;;5030773;28;20422;-68
2022/11/18 01:50:48;;;;;;;1999.90;653.83;;;;;;;;;;5012981;28;20497;-69
2022/11/18 01:53:24;;;;;;;55.15;26.63;;;;;;;;;;5016176;28;20029;-69
2022/11/18 01:55:51;;;;;;;49.80;23.65;;;;;;;;;;5008962;28;20037;-70
2022/11/18 01:58:22;;;;;;;39.60;20.17;;;;;;;;;;5023378;28;20034;-70
2022/11/18 02:00:47;;;;;;;35.80;18.63;;;;;;;;;;5030939;28;20025;-70
2022/11/18 02:03:12;;;;;;;33.93;16.77;;;;;;;;;;5032632;28;20108;-70
2022/11/18 02:05:39;;;;;;;30.63;16.77;;;;;;;;;;5033649;28;20029;-70
2022/11/18 02:08:05;;;;;;;31.98;16.38;;;;;;;;;;5046610;28;20025;-68
2022/11/18 02:10:30;;;;;;;31.02;16.80;;;;;;;;;;5045401;28;20094;-71
2022/11/18 02:12:57;;;;;;;27.83;16.15;;;;;;;;;;5030374;28;20878;-70
2022/11/18 02:15:25;;;;;;;31.77;16.48;;;;;;;;;;5054200;28;20006;-70
2022/11/18 02:17:50;;;;;;;27.80;14.73;;;;;;;;;;5051787;28;20023;-70
2022/11/18 02:20:22;;;;;;;35.57;16.30;;;;;;;;;;5033866;28;20041;-70
2022/11/18 02:22:50;;;;;;;32.05;16.05;;;;;;;;;;5026503;28;20051;-71
2022/11/18 02:25:15;;;;;;;32.67;15.38;;;;;;;;;;5027968;28;20021;-70
2022/11/18 02:27:53;;;;;;;27.50;15.43;;;;;;;;;;5017805;28;20022;-70
2022/11/18 02:30:18;;;;;;;25.50;14.73;;;;;;;;;;5025539;28;20344;-70
2022/11/18 02:32:54;;;;;;;26.23;14.23;;;;;;;;;;5029108;28;20095;-69
2022/11/18 02:35:27;;;;;;;26.65;14.75;;;;;;;;;;5006806;28;20040;-70
2022/11/18 02:37:57;;;;;;;25.40;14.43;;;;;;;;;;5012133;28;20076;-70
2022/11/18 02:40:30;;;;;;;26.17;14.55;;;;;;;;;;5027972;28;20029;-70
2022/11/18 02:43:05;;;;;;;27.55;15.10;;;;;;;;;;5028556;28;20021;-70
2022/11/18 02:45:31;;;;;;;37.47;18.65;;;;;;;;;;5023306;28;20141;-69
2022/11/18 02:48:00;;;;;;;39.45;19.17;;;;;;;;;;5027825;28;20548;-70
2022/11/18 02:50:27;;;;;;;37.53;18.60;;;;;;;;;;5027497;28;20105;-70
2022/11/18 02:52:55;;;;;;;33.15;17.13;;;;;;;;;;5023162;28;20570;-70
2022/11/18 02:55:22;;;;;;;29.55;15.65;;;;;;;;;;5027161;28;20038;-70
2022/11/18 02:57:48;;;;;;;29.95;16.60;;;;;;;;;;5029481;28;20494;-69
2022/11/18 03:00:13;;;;;;;26.73;15.50;;;;;;;;;;5027548;28;20033;-70
2022/11/18 03:02:43;;;;;;;28.70;14.48;;;;;;;;;;5015180;28;20088;-70
2022/11/18 03:05:12;;;;;;;27.73;14.63;;;;;;;;;;5031080;28;20083;-70
2022/11/18 03:07:39;;;;;;;25.60;14.32;;;;;;;;;;5025087;28;20025;-69
2022/11/18 03:10:05;;;;;;;29.33;14.77;;;;;;;;;;5010784;28;20035;-69
2022/11/18 03:12:39;;;;;;;24.60;14.23;;;;;;;;;;5025598;28;20029;-70
2022/11/18 03:15:17;;;;;;;25.73;13.93;;;;;;;;;;5013106;28;20124;-70
2022/11/18 03:17:55;;;;;;;28.73;14.98;;;;;;;;;;5024420;28;20506;-69
2022/11/18 03:20:30;;;;;;;26.17;13.02;;;;;;;;;;5024022;28;20059;-69
2022/11/18 03:23:05;;;;;;;26.20;14.25;;;;;;;;;;5023185;28;20048;-69
2022/11/18 03:25:30;;;;;;;30.38;15.10;;;;;;;;;;5011146;28;20021;-70
2022/11/18 03:28:01;;;;;;;32.93;15.43;;;;;;;;;;5024104;28;20485;-70
2022/11/18 03:30:28;;;;;;;24.92;13.38;;;;;;;;;;5006564;28;20391;-70
2022/11/18 03:33:01;;;;;;;25.05;12.75;;;;;;;;;;5027842;28;20040;-69
2022/11/18 03:35:27;;;;;;;27.13;12.82;;;;;;;;;;5028648;28;20029;-70
2022/11/18 03:37:56;;;;;;;25.80;13.35;;;;;;;;;;5028793;28;20057;-70
2022/11/18 03:40:26;;;;;;;23.77;12.85;;;;;;;;;;5027928;28;20021;-70
2022/11/18 03:42:55;;;;;;;25.85;13.20;;;;;;;;;;5024195;28;20045;-70
2022/11/18 03:45:24;;;;;;;24.97;13.70;;;;;;;;;;5012542;28;20399;-69
2022/11/18 03:47:58;;;;;;;25.35;13.32;;;;;;;;;;5027128;28;20133;-70
2022/11/18 03:50:30;;;;;;;26.10;13.50;;;;;;;;;;5008087;28;20690;-69
2022/11/18 03:52:56;;;;;;;24.42;12.98;;;;;;;;;;5026282;28;20041;-70
2022/11/18 03:55:23;;;;;;;23.65;12.55;;;;;;;;;;5024088;28;20036;-70
2022/11/18 03:57:53;;;;;;;31.67;12.75;;;;;;;;;;5004313;28;20667;-68
2022/11/18 04:00:19;;;;;;;26.15;13.60;;;;;;;;;;5009238;28;20101;-70
2022/11/18 04:02:45;;;;;;;25.92;12.80;;;;;;;;;;5013558;28;20433;-71
2022/11/18 04:05:12;;;;;;;23.75;12.65;;;;;;;;;;5022779;28;20029;-71
2022/11/18 04:07:37;;;;;;;30.58;13.55;;;;;;;;;;5021752;28;20026;-69
2022/11/18 04:10:13;;;;;;;30.57;14.07;;;;;;;;;;5021558;28;20044;-69
2022/11/18 04:12:49;;;;;;;26.40;12.90;;;;;;;;;;5023870;28;20390;-70
2022/11/18 04:15:15;;;;;;;26.75;13.50;;;;;;;;;;5024116;28;20065;-69
2022/11/18 04:17:41;;;;;;;24.05;13.00;;;;;;;;;;5007568;28;20069;-69
2022/11/18 04:20:11;;;;;;;23.60;12.93;;;;;;;;;;5023271;28;20044;-69
2022/11/18 04:22:36;;;;;;;26.35;13.57;;;;;;;;;;5026424;28;20021;-68
2022/11/18 04:25:02;;;;;;;22.50;12.10;;;;;;;;;;5023288;28;20032;-69
2022/11/18 04:27:27;;;;;;;23.13;11.90;;;;;;;;;;5010162;28;20110;-70
2022/11/18 04:29:52;;;;;;;26.50;12.88;;;;;;;;;;5008359;28;20387;-70
2022/11/18 04:32:17;;;;;;;25.87;13.33;;;;;;;;;;5028778;28;20048;-70
2022/11/18 04:34:43;;;;;;;25.17;13.30;;;;;;;;;;5021046;28;20282;-69
2022/11/18 04:37:08;;;;;;;24.10;12.30;;;;;;;;;;5026462;28;20030;-69
2022/11/18 04:39:33;;;;;;;21.47;12.50;;;;;;;;;;5026842;28;20025;-70
2022/11/18 04:41:58;;;;;;;23.17;12.85;;;;;;;;;;5018944;28;20036;-70
2022/11/18 04:44:25;;;;;;;22.48;11.95;;;;;;;;;;5012544;28;20025;-73
2022/11/18 04:46:50;;;;;;;23.20;12.07;;;;;;;;;;5021544;28;20506;-74
2022/11/18 04:49:16;;;;;;;26.40;13.55;;;;;;;;;;5022449;28;20034;-72
2022/11/18 04:51:42;;;;;;;26.75;13.63;;;;;;;;;;5015377;28;20391;-67
2022/11/18 04:54:08;;;;;;;24.85;13.77;;;;;;;;;;5024794;28;20029;-68
2022/11/18 04:56:33;;;;;;;31.70;14.15;;;;;;;;;;5028292;28;20041;-67
2022/11/18 04:58:59;;;;;;;33.63;15.93;;;;;;;;;;5021369;28;20033;-67
2022/11/18 05:01:25;;;;;;;35.65;16.48;;;;;;;;;;5031473;28;20044;-69
2022/11/18 05:03:50;;;;;;;26.58;14.80;;;;;;;;;;5027190;28;20038;-70
2022/11/18 05:06:17;;;;;;;21.90;11.93;;;;;;;;;;5012604;28;20041;-70
2022/11/18 05:08:42;;;;;;;28.13;12.33;;;;;;;;;;5028181;28;20040;-71
2022/11/18 05:13:52;;;;;;;25.67;13.20;;;;;;;;;;5043491;28;20270;-70
2022/11/18 05:16:17;;;;;;;32.67;15.73;;;;;;;;;;5057109;28;20021;-72
2022/11/18 05:18:43;;;;;;;28.83;14.85;;;;;;;;;;5050334;28;20056;-70
2022/11/18 05:21:08;;;;;;;30.17;15.37;;;;;;;;;;5053110;28;20010;-70
2022/11/18 05:23:33;;;;;;;27.35;14.10;;;;;;;;;;5044141;28;20081;-69
2022/11/18 05:26:05;;;;;;;28.83;12.57;;;;;;;;;;5047095;28;20684;-70
2022/11/18 05:28:30;;;;;;;23.02;12.05;;;;;;;;;;5024664;28;20043;-71
2022/11/18 05:30:55;;;;;;;22.37;11.60;;;;;;;;;;5010168;28;20093;-71
2022/11/18 05:33:21;;;;;;;25.33;11.90;;;;;;;;;;5024413;28;20283;-70
2022/11/18 05:35:46;;;;;;;21.05;11.65;;;;;;;;;;5028480;28;20293;-71
2022/11/18 05:38:11;;;;;;;23.13;11.13;;;;;;;;;;5027257;28;20099;-70
2022/11/18 05:40:36;;;;;;;23.50;11.43;;;;;;;;;;5026883;28;20068;-70
2022/11/18 05:43:11;;;;;;;27.03;11.43;;;;;;;;;;5020155;28;20282;-69
2022/11/18 05:45:37;;;;;;;28.75;12.10;;;;;;;;;;5021603;28;20358;-71
2022/11/18 05:48:03;;;;;;;24.38;12.60;;;;;;;;;;5012542;28;20108;-70
2022/11/18 05:50:33;;;;;;;22.88;12.05;;;;;;;;;;5028420;28;20029;-70
2022/11/18 05:52:58;;;;;;;22.85;11.13;;;;;;;;;;5025300;28;20131;-70
2022/11/18 05:55:26;;;;;;;22.35;11.00;;;;;;;;;;5010505;28;20120;-70
2022/11/18 05:57:51;;;;;;;20.83;10.80;;;;;;;;;;5010390;28;20045;-70
2022/11/18 06:00:17;;;;;;;20.27;10.87;;;;;;;;;;5023504;28;20033;-70
2022/11/18 06:02:42;;;;;;;23.67;11.68;;;;;;;;;;5024483;28;20341;-70
2022/11/18 06:05:08;;;;;;;25.73;10.88;;;;;;;;;;5024994;28;20022;-70
2022/11/18 06:07:38;;;;;;;22.38;11.52;;;;;;;;;;5027588;28;20429;-71
2022/11/18 06:10:04;;;;;;;20.27;10.70;;;;;;;;;;5021783;28;20030;-71
2022/11/18 06:12:32;;;;;;;22.05;11.02;;;;;;;;;;5025418;28;20398;-70
2022/11/18 06:14:59;;;;;;;20.17;11.20;;;;;;;;;;5027893;28;20554;-72
2022/11/18 06:17:27;;;;;;;22.50;11.98;;;;;;;;;;5012857;28;20040;-71
2022/11/18 06:19:53;;;;;;;22.77;11.40;;;;;;;;;;5024414;28;20027;-72
2022/11/18 06:22:18;;;;;;;21.73;11.25;;;;;;;;;;5031674;28;20104;-72
2022/11/18 06:24:44;;;;;;;25.30;10.73;;;;;;;;;;5028185;28;20033;-71
2022/11/18 06:27:09;;;;;;;23.42;10.73;;;;;;;;;;5009202;28;20471;-73
2022/11/18 06:29:34;;;;;;;22.60;11.20;;;;;;;;;;5024533;28;20034;-71
2022/11/18 06:32:00;;;;;;;21.13;10.43;;;;;;;;;;5025894;28;20030;-72
2022/11/18 06:34:25;;;;;;;21.23;10.40;;;;;;;;;;5011419;28;20334;-70
2022/11/18 06:36:50;;;;;;;19.23;10.20;;;;;;;;;;5030175;28;20313;-70
2022/11/18 06:39:16;;;;;;;20.60;11.15;;;;;;;;;;5028575;28;20301;-70
2022/11/18 06:41:41;;;;;;;23.67;10.97;;;;;;;;;;5031181;28;20025;-70
2022/11/18 06:44:06;;;;;;;21.27;11.33;;;;;;;;;;5023816;28;20312;-70
2022/11/18 06:49:15;;;;;;;24.08;11.57;;;;;;;;;;5028986;28;20091;-69
2022/11/18 06:51:40;;;;;;;19.30;11.10;;;;;;;;;;5029059;28;20032;-70
2022/11/18 06:54:06;;;;;;;21.38;10.32;;;;;;;;;;5024298;28;20223;-70
2022/11/18 06:56:31;;;;;;;24.83;11.52;;;;;;;;;;5027227;28;20029;-70
2022/11/18 06:58:57;;;;;;;22.95;11.55;;;;;;;;;;5027285;28;20112;-70
2022/11/18 07:01:24;;;;;;;28.02;11.77;;;;;;;;;;5030241;28;20025;-71
2022/11/18 07:03:49;;;;;;;24.17;12.60;;;;;;;;;;5015927;28;20538;-71
2022/11/18 07:06:16;;;;;;;28.30;12.45;;;;;;;;;;5023038;28;20032;-70
2022/11/18 07:08:42;;;;;;;23.35;11.85;;;;;;;;;;5013032;28;20518;-70
2022/11/18 07:11:08;;;;;;;24.73;13.15;;;;;;;;;;5028725;28;20052;-70
2022/11/18 07:13:34;;;;;;;26.27;13.45;;;;;;;;;;5028720;28;20025;-69
2022/11/18 07:16:03;;;;;;;26.52;13.05;;;;;;;;;;5009596;28;20032;-69
2022/11/18 07:18:29;;;;;;;24.93;13.03;;;;;;;;;;5025095;28;20033;-69
2022/11/18 07:20:54;;;;;;;28.10;13.23;;;;;;;;;;5029952;28;20034;-71
2022/11/18 07:23:19;;;;;;;26.30;13.20;;;;;;;;;;5011917;28;20401;-69
2022/11/18 07:25:45;;;;;;;28.97;12.77;;;;;;;;;;5010481;28;20367;-69
2022/11/18 07:28:10;;;;;;;27.07;12.43;;;;;;;;;;5011005;28;20428;-69
2022/11/18 07:30:35;;;;;;;35.93;12.93;;;;;;;;;;5007588;28;20033;-69
2022/11/18 07:33:00;;;;;;;25.90;12.60;;;;;;;;;;5017960;28;20042;-69
2022/11/18 07:35:26;;;;;;;28.07;12.77;;;;;;;;;;5018549;28;20703;-69
2022/11/18 07:37:51;;;;;;;25.47;12.33;;;;;;;;;;5019168;28;20548;-69
2022/11/18 07:40:16;;;;;;;25.47;11.90;;;;;;;;;;5026565;28;20435;-69
2022/11/18 07:42:41;;;;;;;23.20;11.50;;;;;;;;;;5013962;28;20032;-69
2022/11/18 07:45:10;;;;;;;22.30;11.50;;;;;;;;;;5024501;28;20020;-69
2022/11/18 07:47:35;;;;;;;24.50;11.50;;;;;;;;;;5022918;28;20061;-69
2022/11/18 07:50:01;;;;;;;25.80;11.40;;;;;;;;;;5021916;28;20482;-70
2022/11/18 07:52:26;;;;;;;23.03;11.53;;;;;;;;;;5018577;28;20087;-69
2022/11/18 07:54:51;;;;;;;20.23;12.10;;;;;;;;;;5016587;28;20058;-69
2022/11/18 07:57:16;;;;;;;23.50;12.60;;;;;;;;;;5005974;28;20487;-70
2022/11/18 07:59:42;;;;;;;19.97;12.03;;;;;;;;;;5023448;28;20486;-70
2022/11/18 08:02:10;;;;;;;26.23;11.33;;;;;;;;;;5023493;28;20270;-69
2022/11/18 08:04:36;;;;;;;19.05;11.13;;;;;;;;;;5020765;28;20037;-69
2022/11/18 08:07:01;;;;;;;20.98;12.07;;;;;;;;;;5017332;28;20021;-70
2022/11/18 08:09:26;;;;;;;23.17;11.27;;;;;;;;;;5022611;28;20029;-70
2022/11/18 08:11:51;;;;;;;20.33;10.73;;;;;;;;;;5021661;28;20760;-70
2022/11/18 08:14:17;;;;;;;22.70;11.25;;;;;;;;;;5030253;28;20271;-70
2022/11/18 08:16:42;;;;;;;25.63;11.23;;;;;;;;;;5047280;28;20064;-70
2022/11/18 08:19:07;;;;;;;24.13;11.60;;;;;;;;;;5048947;28;20296;-69
2022/11/18 08:21:32;;;;;;;22.67;12.07;;;;;;;;;;5046451;28;20070;-69
2022/11/18 08:23:58;;;;;;;32.13;14.73;;;;;;;;;;5048390;28;20294;-69
2022/11/18 08:26:23;;;;;;;42.35;19.13;;;;;;;;;;5031026;28;20290;-69
2022/11/18 08:28:49;;;;;;;41.85;20.35;;;;;;;;;;5033570;28;20022;-70
2022/11/18 08:31:19;;;;;;;38.13;18.90;;;;;;;;;;5003735;28;20049;-70
2022/11/18 08:33:44;;;;;;;;;;;;;;;;;;5007696;28;20506;-69
2022/11/18 08:36:13;;;;;;;32.13;17.67;;;;;;;;;;5020530;28;19914;-70
2022/11/18 08:38:38;;;;;;;38.47;19.73;;;;;;;;;;5017887;28;20499;-70
2022/11/18 08:41:06;;;;;;;41.83;20.23;;;;;;;;;;5014190;28;20033;-69
2022/11/18 08:43:31;;;;;;;42.90;20.67;;;;;;;;;;5031687;28;20059;-69
2022/11/18 08:45:56;;;;;;;39.37;19.00;;;;;;;;;;5009242;28;20022;-71
2022/11/18 08:48:21;;;;;;;39.25;20.10;;;;;;;;;;5023062;28;20048;-69
2022/11/18 08:50:47;;;;;;;34.63;17.30;;;;;;;;;;5028930;28;20498;-70
2022/11/18 08:53:13;;;;;;;30.73;14.23;;;;;;;;;;5029904;28;20390;-70
2022/11/18 08:55:39;;;;;;;26.25;14.35;;;;;;;;;;5022418;28;20213;-71
2022/11/18 08:58:04;;;;;;;27.13;14.37;;;;;;;;;;5027236;28;20067;-71
2022/11/18 09:00:29;;;;;;;29.30;14.43;;;;;;;;;;5020844;28;20048;-71
2022/11/18 09:02:54;;;;;;;26.00;13.90;;;;;;;;;;5028430;28;20068;-69
2022/11/18 09:05:19;;;;;;;25.97;15.10;;;;;;;;;;5023792;28;20141;-70
2022/11/18 09:07:45;;;;;;;46.47;27.73;;;;;;;;;;5023354;28;20040;-70
2022/11/18 09:10:10;;;;;;;38.07;20.50;;;;;;;;;;5020243;28;20054;-70
2022/11/18 09:12:35;;;;;;;31.47;16.93;;;;;;;;;;5024188;28;20065;-74
2022/11/18 09:15:01;;;;;;;34.38;17.17;;;;;;;;;;5010699;28;20049;-70
2022/11/18 09:17:26;;;;;;;32.08;16.42;;;;;;;;;;5028946;28;20099;-70
2022/11/18 09:19:51;;;;;;;31.70;16.70;;;;;;;;;;5010121;28;20033;-70
2022/11/18 09:22:16;;;;;;;30.20;15.87;;;;;;;;;;5028472;28;20278;-71
2022/11/18 09:24:42;;;;;;;31.43;16.30;;;;;;;;;;5014137;28;20025;-71
2022/11/18 09:27:07;;;;;;;29.33;15.52;;;;;;;;;;5027464;28;20267;-70
2022/11/18 09:29:33;;;;;;;29.80;16.45;;;;;;;;;;5024166;28;20024;-70
2022/11/18 09:32:00;;;;;;;32.03;17.08;;;;;;;;;;5028518;28;20033;-70
2022/11/18 09:34:26;;;;;;;34.30;18.35;;;;;;;;;;5020292;28;20030;-70
2022/11/18 09:36:54;;;;;;;33.70;17.38;;;;;;;;;;5025213;28;20435;-70
2022/11/18 09:39:19;;;;;;;39.58;18.80;;;;;;;;;;5027989;28;20084;-71
2022/11/18 09:41:46;;;;;;;36.05;19.25;;;;;;;;;;5023634;28;20033;-73
2022/11/18 09:44:17;;;;;;;37.60;20.17;;;;;;;;;;5024800;28;20026;-72
2022/11/18 09:46:58;;;;;;;44.22;22.65;;;;;;;;;;5026410;28;20100;-72
2022/11/18 09:49:31;;;;;;;40.85;22.88;;;;;;;;;;5029527;28;20117;-72
2022/11/18 09:51:56;;;;;;;42.67;23.65;;;;;;;;;;5005688;28;20155;-72
2022/11/18 09:54:21;;;;;;;47.17;23.77;;;;;;;;;;5027157;28;20105;-72
2022/11/18 09:56:49;;;;;;;38.85;21.92;;;;;;;;;;5029546;28;20483;-72
2022/11/18 09:59:16;;;;;;;36.72;21.20;;;;;;;;;;5022278;28;20109;-72
2022/11/18 10:01:42;;;;;;;39.97;21.48;;;;;;;;;;5008732;28;20448;-70
2022/11/18 10:04:18;;;;;;;39.58;21.33;;;;;;;;;;5028532;28;20091;-70
2022/11/18 10:06:44;;;;;;;41.78;21.55;;;;;;;;;;5022343;28;20022;-72
2022/11/18 10:09:15;;;;;;;41.58;21.52;;;;;;;;;;5024646;28;20026;-72
2022/11/18 10:11:49;;;;;;;37.33;20.67;;;;;;;;;;5018332;28;20025;-72
2022/11/18 10:14:14;;;;;;;37.05;19.40;;;;;;;;;;5027976;28;20550;-72
2022/11/18 10:16:52;;;;;;;43.23;21.67;;;;;;;;;;5019896;28;20050;-72
2022/11/18 10:19:37;;;;;;;50.67;26.58;;;;;;;;;;5024715;28;20482;-72
2022/11/18 10:22:02;;;;;;;65.10;30.10;;;;;;;;;;5023476;28;20439;-71
2022/11/18 10:24:31;;;;;;;56.53;29.23;;;;;;;;;;5015047;28;20018;-70
2022/11/18 10:26:58;;;;;;;43.80;23.27;;;;;;;;;;5011564;28;20018;-70
2022/11/18 10:29:24;;;;;;;42.40;22.05;;;;;;;;;;5028390;28;20067;-71
2022/11/18 10:32:01;;;;;;;43.38;21.50;;;;;;;;;;5021410;28;20038;-71
2022/11/18 10:34:27;;;;;;;36.97;20.67;;;;;;;;;;5023752;28;20021;-70
2022/11/18 10:37:05;;;;;;;41.53;22.53;;;;;;;;;;5025099;28;20479;-71
2022/11/18 10:39:31;;;;;;;40.30;20.80;;;;;;;;;;5025941;28;20290;-70
2022/11/18 10:42:04;;;;;;;34.67;18.30;;;;;;;;;;5024254;28;20109;-71
2022/11/18 10:44:37;;;;;;;33.55;17.83;;;;;;;;;;5010008;28;20111;-70
2022/11/18 10:47:20;;;;;;;30.50;16.23;;;;;;;;;;5029902;28;20463;-70
2022/11/18 10:49:45;;;;;;;28.95;15.13;;;;;;;;;;5030449;28;20113;-70
2022/11/18 10:52:13;;;;;;;31.83;16.43;;;;;;;;;;5027546;28;20128;-69
2022/11/18 10:54:38;;;;;;;29.48;15.38;;;;;;;;;;5023813;28;20278;-69
2022/11/18 10:57:09;;;;;;;30.65;16.63;;;;;;;;;;5025357;28;20083;-70
2022/11/18 10:59:40;;;;;;;30.55;15.95;;;;;;;;;;5024037;28;20052;-71
2022/11/18 11:02:37;;;;;;;26.45;15.27;;;;;;;;;;5025258;28;20091;-69
2022/11/18 11:05:14;;;;;;;23.90;13.55;;;;;;;;;;4965682;28;20065;-72
2022/11/18 11:07:39;;;;;;;27.52;14.38;;;;;;;;;;5024125;28;20037;-70
2022/11/18 11:10:04;;;;;;;30.15;15.07;;;;;;;;;;5014899;28;20021;-71
2022/11/18 11:12:31;;;;;;;24.40;13.97;;;;;;;;;;5009264;28;20044;-71
2022/11/18 11:14:59;;;;;;;27.85;14.40;;;;;;;;;;5019386;28;20024;-71
2022/11/18 11:17:34;;;;;;;29.48;15.02;;;;;;;;;;5032770;28;20482;-71
2022/11/18 11:20:18;;;;;;;29.60;16.10;;;;;;;;;;5029944;28;20097;-71
2022/11/18 11:22:44;;;;;;;27.48;16.08;;;;;;;;;;5054445;28;20056;-69
2022/11/18 11:25:18;;;;;;;41.78;18.17;;;;;;;;;;5033037;28;20022;-70
2022/11/18 11:27:46;;;;;;;32.88;17.95;;;;;;;;;;5038246;28;20057;-69
2022/11/18 11:30:18;;;;;;;35.45;18.38;;;;;;;;;;5024522;28;20128;-71
2022/11/18 11:33:22;;;;;;;33.67;17.40;;;;;;;;;;5033045;28;20021;-70
2022/11/18 11:36:08;;;;;;;35.67;19.52;;;;;;;;;;4965386;28;20034;-70
2022/11/18 11:38:33;;;;;;;35.63;19.95;;;;;;;;;;4965825;28;20042;-70
2022/11/18 11:41:06;;;;;;;41.10;20.90;;;;;;;;;;4956818;28;20050;-70
2022/11/18 11:43:41;;;;;;;35.28;18.83;;;;;;;;;;4953652;28;20083;-70
2022/11/18 11:46:06;;;;;;;33.47;18.60;;;;;;;;;;4966414;28;20015;-71
2022/11/18 11:48:39;;;;;;;39.63;18.67;;;;;;;;;;4957164;28;20089;-70
2022/11/18 11:51:15;;;;;;;35.65;19.15;;;;;;;;;;4952249;28;20416;-69
2022/11/18 11:53:55;;;;;;;37.90;20.02;;;;;;;;;;4961938;28;20117;-70
2022/11/18 11:56:32;;;;;;;37.00;20.23;;;;;;;;;;4964313;28;20031;-70
2022/11/18 11:59:07;;;;;;;40.95;19.70;;;;;;;;;;4961790;28;20075;-71
2022/11/18 12:01:38;;;;;;;36.92;18.95;;;;;;;;;;4961854;28;20074;-69
2022/11/18 12:04:14;;;;;;;37.70;20.15;;;;;;;;;;4956941;28;20098;-70
2022/11/18 12:06:41;;;;;;;34.40;18.83;;;;;;;;;;4991725;28;20046;-71
2022/11/18 12:09:15;;;;;;;37.85;20.00;;;;;;;;;;5019792;28;20017;-70
2022/11/18 12:11:43;;;;;;;39.35;19.25;;;;;;;;;;5021517;28;20506;-70
2022/11/18 12:14:21;;;;;;;33.80;18.58;;;;;;;;;;5031911;28;20037;-72
2022/11/18 12:16:49;;;;;;;32.80;17.90;;;;;;;;;;5015420;28;20769;-72
2022/11/18 12:19:16;;;;;;;29.38;17.13;;;;;;;;;;5028835;28;20513;-72
2022/11/18 12:21:45;;;;;;;28.13;16.25;;;;;;;;;;5031512;28;20036;-71
2022/11/18 12:24:16;;;;;;;34.35;17.45;;;;;;;;;;5028395;28;20132;-70
2022/11/18 12:26:42;;;;;;;30.40;16.85;;;;;;;;;;5011970;28;20022;-71
2022/11/18 12:29:19;;;;;;;32.40;18.52;;;;;;;;;;5013879;28;20088;-72
2022/11/18 12:31:46;;;;;;;32.03;17.42;;;;;;;;;;5027224;28;20129;-70
2022/11/18 12:34:38;;;;;;;30.88;17.13;;;;;;;8.96;nan;98780.97;5026816;28;20025;-71
2022/11/18 12:37:21;;;;;;;31.08;17.77;;;;;;;;;;5008183;28;20673;-72
2022/11/18 12:39:47;;;;;;;31.27;17.42;;;;;;;;;;5011673;28;20033;-70
2022/11/18 12:45:50;;;;;;;32.08;18.33;;;;;;;;;;5027788;28;20028;-71
2022/11/18 12:48:34;;;;;;;32.80;17.67;;;;;;;;;;4974927;28;20037;-70
2022/11/18 12:51:00;;;;;;;32.15;18.48;;;;;;;;;;5030811;28;20022;-70
2022/11/18 12:53:46;;;;;;;30.92;17.25;;;;;;;;;;5031553;28;20039;-71
2022/11/18 12:56:11;;;;;;;32.53;17.77;;;;;;;;;;5027352;28;20036;-71
2022/11/18 12:58:37;;;;;;;36.20;19.58;;;;;;;;;;5029155;28;20033;-71
2022/11/18 13:01:04;;;;;;;32.05;18.02;;;;;;;;;;5025828;28;20038;-72
2022/11/18 13:03:30;;;;;;;32.58;18.58;;;;;;;;;;5011370;28;20483;-71
2022/11/18 13:06:01;;;;;;;29.38;16.67;;;;;;;;;;5019918;28;20075;-72
2022/11/18 13:08:27;;;;;;;32.20;17.65;;;;;;;;;;5030829;28;20048;-72
2022/11/18 13:11:43;;;;;;;33.42;17.27;;;;;;;;;;5024709;28;20029;-71
2022/11/18 13:13:42;;;;;;;31.02;17.15;;;;;;;;;;5023124;28;20052;-72
2022/11/18 13:19:01;;;;;;;34.85;19.80;;;;;;;;;;5011939;28;20099;-71
2022/11/18 13:24:12;;;;;;;31.98;18.60;;;;;;;;;;5030399;28;20107;-72
2022/11/18 13:26:39;;;;;;;29.70;17.15;;;;;;;;;;5030610;28;20017;-71
2022/11/18 13:29:21;;;;;;;29.67;17.17;;;;;;;;;;5031403;28;20029;-72
2022/11/18 13:31:46;;;;;;;32.30;16.95;;;;;;;;;;5025184;28;20038;-72
2022/11/18 13:34:16;;;;;;;28.53;17.10;;;;;;;;;;5028536;28;20095;-72
2022/11/18 13:36:44;;;;;;;27.83;16.38;;;;;;;9.22;nan;98704.91;5027801;28;20013;-71
2022/11/18 13:39:31;;;;;;;25.73;15.35;;;;;;;9.41;nan;98719.19;5032968;28;20041;-69
2022/11/18 13:41:59;;;;;;;26.63;15.65;;;;;;;9.39;nan;98718.66;5030558;28;20028;-73
2022/11/18 13:44:27;;;;;;;26.27;15.98;;;;;;;9.43;nan;98703.94;5022932;28;20033;-72
2022/11/18 13:47:00;;;;;;;28.10;15.65;;;;;;;9.35;nan;98696.56;5032835;28;20029;-72
2022/11/18 13:49:35;;;;;;;30.58;14.50;;;;;;;9.35;nan;98693.94;5018527;28;20631;-73
2022/11/18 13:52:01;;;;;;;24.88;14.30;;;;;;;9.45;nan;98695.81;5027733;28;20037;-71
2022/11/18 13:54:26;;;;;;;28.60;14.98;;;;;;;9.47;nan;98707.63;5015778;28;20037;-71
2022/11/18 13:56:53;;;;;;;26.52;15.10;;;;;;;9.43;nan;98700.53;5013400;28;20041;-71
2022/11/18 13:59:22;;;;;;;26.63;14.93;;;;;;;9.42;nan;98683.19;5025960;28;20457;-71
2022/11/18 14:01:54;;;;;;;;;;;;;;;9.51;nan;98702.66;5024352;28;20025;-71
2022/11/18 14:04:22;;;;;;;22.92;13.35;;;;;;;9.51;nan;98708.69;5023194;28;19913;-70
2022/11/18 14:06:48;;;;;;;26.80;14.20;;;;;;;9.37;nan;98682.13;5023546;28;20022;-69
2022/11/18 14:09:27;;;;;;;27.63;14.98;;;;;;;9.51;nan;98690.31;5015343;28;20039;-69
2022/11/18 14:12:05;;;;;;;25.73;15.38;;;;;;;9.52;nan;98704.22;5022478;28;20483;-69
2022/11/18 14:14:38;;;;;;;30.48;15.63;;;;;;;9.44;nan;98697.66;5028016;28;20041;-69
2022/11/18 14:17:22;;;;;;;30.00;16.38;;;;;;;9.53;nan;98718.97;5021080;28;20029;-69
2022/11/18 14:19:51;;;;;;;31.40;17.48;;;;;;;9.45;nan;98711.56;5024136;28;20152;-70
2022/11/18 14:22:20;;;;;;;34.15;19.15;;;;;;;9.53;nan;98714.50;5025010;28;20026;-69
2022/11/18 14:24:56;;;;;;;36.58;23.55;;;;;;;9.50;nan;98691.34;5027958;28;20032;-71
2022/11/18 14:27:42;;;;;;;34.78;21.30;;;;;;;9.55;nan;98682.69;5030243;28;20112;-70
2022/11/18 14:30:24;;;;;;;38.40;21.05;;;;;;;9.47;nan;98673.47;5023010;28;20052;-70
2022/11/18 14:33:17;;;;;;;31.20;18.30;;;;;;;9.49;nan;98668.75;5008963;28;20369;-70